This is the latest recevied weather packets stored in our database for station/object M0UPS-13. If no packets are shown the sender has not sent any weather packets the latest 10 day(s).
| Time | Temp. | Humidity | Pressure | Rain* | Wind** | Luminosity | Snow |
|---|---|---|---|---|---|---|---|
| 1777378202 | 15.56° C | 51% | 1024.4 hPa | 0 mm | - | 762 W/m² | - |
| 1777377902 | 16.11° C | 53% | 1024.4 hPa | 0 mm | - | 793 W/m² | - |
| 1777377602 | 15.56° C | 56% | 1024.6 hPa | 0 mm | - | 306 W/m² | - |
| 1777377302 | 15° C | 55% | 1024.5 hPa | 0 mm | - | 784 W/m² | - |
| 1777377003 | 15° C | 57% | 1024.6 hPa | 0 mm | - | 377 W/m² | - |
| 1777376702 | 15° C | 55% | 1024.5 hPa | 0 mm | - | 214 W/m² | - |
| 1777376402 | 13.89° C | 59% | 1024.6 hPa | 0 mm | - | 742 W/m² | - |
| 1777376103 | 13.89° C | 61% | 1024.5 hPa | 0 mm | - | 704 W/m² | - |
| 1777375802 | 12.78° C | 68% | 1024.9 hPa | 0 mm | - | 731 W/m² | - |
| 1777375502 | 12.22° C | 68% | 1024.9 hPa | 0 mm | - | 301 W/m² | - |
| 1777375202 | 11.67° C | 70% | 1025 hPa | 0 mm | - | 312 W/m² | - |
| 1777374902 | 11.67° C | 71% | 1025 hPa | 0 mm | - | 107 W/m² | - |
| 1777374602 | 11.67° C | 70% | 1025.1 hPa | 0 mm | - | 91 W/m² | - |
| 1777374303 | 11.67° C | 70% | 1025.2 hPa | 0 mm | - | 169 W/m² | - |
| 1777374003 | 11.11° C | 72% | 1025.2 hPa | 0 mm | - | 357 W/m² | - |
| 1777373702 | 10.56° C | 73% | 1025.5 hPa | 0 mm | - | 136 W/m² | - |
| 1777373403 | 10.56° C | 73% | 1025.3 hPa | 0 mm | - | 61 W/m² | - |
| 1777373102 | 10.56° C | 73% | 1025.1 hPa | 0 mm | - | 52 W/m² | - |
| 1777372802 | 11.11° C | 73% | 1025.3 hPa | 0 mm | - | 57 W/m² | - |
| 1777372502 | 11.11° C | 73% | 1025.1 hPa | 0 mm | - | 74 W/m² | - |
| 1777372203 | 11.11° C | 73% | 1025.2 hPa | 0 mm | - | 93 W/m² | - |
| 1777371902 | 10.56° C | 73% | 1025.5 hPa | 0 mm | - | 103 W/m² | - |
| 1777371602 | 10.56° C | 73% | 1025.5 hPa | 0 mm | - | 82 W/m² | - |
| 1777371302 | 11.11° C | 72% | 1025.2 hPa | 0 mm | - | 94 W/m² | - |
| 1777371003 | 11.11° C | 73% | 1025.1 hPa | 0 mm | - | 105 W/m² | - |
* Rain latest hour (hover to see other rain measurements)
** Current wind speed in m/s (hover to see current wind gust speed)